createdAt,value
2023-02-16T00:00:36.798Z,96.58
2023-02-16T00:03:03.181Z,97.05
2023-02-16T00:05:29.546Z,97.31
2023-02-16T00:07:55.889Z,97.48
2023-02-16T00:10:22.220Z,97.96
2023-02-16T00:13:07.361Z,97.43
2023-02-16T00:15:33.677Z,97.48
2023-02-16T00:18:00.552Z,97.38
2023-02-16T00:20:26.849Z,98.02
2023-02-16T00:22:53.152Z,97.89
2023-02-16T00:25:19.505Z,98.12
2023-02-16T00:27:45.842Z,98.19
2023-02-16T00:30:12.214Z,98.63
2023-02-16T00:32:38.562Z,98.49
2023-02-16T00:35:04.905Z,98.48
2023-02-16T00:37:31.239Z,98.43
2023-02-16T00:39:57.573Z,98.37
2023-02-16T00:42:24.337Z,98.73
2023-02-16T00:44:50.672Z,98.55
2023-02-16T00:47:16.993Z,98.94
2023-02-16T00:49:43.295Z,99.18
2023-02-16T00:52:09.636Z,98.96
2023-02-16T00:54:35.951Z,98.27
2023-02-16T00:57:02.280Z,98.00
2023-02-16T00:59:28.595Z,98.82
2023-02-16T01:01:55.053Z,98.72
2023-02-16T01:04:21.566Z,98.74
2023-02-16T01:07:06.860Z,98.91
2023-02-16T01:09:51.636Z,98.25
2023-02-16T01:12:17.940Z,98.53
2023-02-16T01:14:44.258Z,98.88
2023-02-16T01:17:10.581Z,98.49
2023-02-16T01:19:36.903Z,98.42
2023-02-16T01:22:03.238Z,99.41
2023-02-16T01:24:29.563Z,98.66
2023-02-16T01:26:55.870Z,98.59
2023-02-16T01:29:22.250Z,99.28
2023-02-16T01:31:48.670Z,98.87
2023-02-16T01:34:15.102Z,99.50
2023-02-16T01:36:41.407Z,99.56
2023-02-16T01:39:07.837Z,99.39
2023-02-16T01:41:34.166Z,99.91
2023-02-16T01:44:00.492Z,99.47
2023-02-16T01:46:27.282Z,99.38
2023-02-16T01:48:53.644Z,99.76
2023-02-16T01:51:19.951Z,99.35
2023-02-16T01:53:46.620Z,99.41
2023-02-16T01:56:12.916Z,99.42
2023-02-16T01:58:39.216Z,99.56
2023-02-16T02:01:05.876Z,99.42
2023-02-16T02:03:51.051Z,99.28
2023-02-16T02:06:17.349Z,99.50
2023-02-16T02:08:43.650Z,98.60
2023-02-16T02:11:10.006Z,98.38
2023-02-16T02:13:36.308Z,98.20
2023-02-16T02:16:02.705Z,98.30
2023-02-16T02:18:29.063Z,98.79
2023-02-16T02:21:14.279Z,99.23
2023-02-16T02:23:40.652Z,99.67
2023-02-16T02:26:07.918Z,99.88
2023-02-16T02:28:34.269Z,99.53
2023-02-16T02:31:00.881Z,99.37
2023-02-16T02:33:27.262Z,99.43
2023-02-16T02:35:53.993Z,99.38
2023-02-16T02:38:20.313Z,99.28
2023-02-16T02:40:46.637Z,99.11
2023-02-16T02:43:12.952Z,99.00
2023-02-16T02:45:39.266Z,99.33
2023-02-16T02:48:05.643Z,99.78
2023-02-16T02:50:31.967Z,99.35
2023-02-16T02:52:58.291Z,99.60
2023-02-16T02:56:00.343Z,99.70
2023-02-16T02:58:45.233Z,100.00
2023-02-16T03:01:11.623Z,99.46
2023-02-16T03:03:38.021Z,99.33
2023-02-16T03:06:04.369Z,99.19
2023-02-16T03:08:30.677Z,99.73
2023-02-16T03:11:15.862Z,99.92
2023-02-16T03:13:42.195Z,100.00
2023-02-16T03:16:08.588Z,100.00
2023-02-16T03:18:53.914Z,100.00
2023-02-16T03:21:38.938Z,100.00
2023-02-16T03:24:23.953Z,100.00
2023-02-16T03:27:09.453Z,100.00
2023-02-16T03:29:35.895Z,99.81
2023-02-16T03:32:02.328Z,99.57
2023-02-16T03:34:28.698Z,100.00
2023-02-16T03:36:58.475Z,100.00
2023-02-16T03:39:24.798Z,99.98
2023-02-16T03:41:51.244Z,100.00
2023-02-16T03:44:17.602Z,100.00
2023-02-16T03:46:44.002Z,100.00
2023-02-16T03:49:10.332Z,100.00
2023-02-16T03:51:36.697Z,100.00
2023-02-16T03:54:03.006Z,100.00
2023-02-16T03:56:29.350Z,100.00
2023-02-16T03:58:55.718Z,100.00
2023-02-16T04:01:22.028Z,100.00
2023-02-16T04:03:48.442Z,100.00
2023-02-16T04:06:14.761Z,100.00
2023-02-16T04:08:41.151Z,100.00
2023-02-16T04:11:27.473Z,100.00
2023-02-16T04:13:53.835Z,100.00
2023-02-16T04:16:20.174Z,100.00
2023-02-16T04:18:46.535Z,100.00
2023-02-16T04:21:12.833Z,100.00
2023-02-16T04:23:39.211Z,100.00
2023-02-16T04:26:05.547Z,100.00
2023-02-16T04:28:31.885Z,100.00
2023-02-16T04:30:58.281Z,100.00
2023-02-16T04:33:24.728Z,100.00
2023-02-16T04:35:51.083Z,100.00
2023-02-16T04:38:17.431Z,100.00
2023-02-16T04:40:43.745Z,100.00
2023-02-16T04:43:10.055Z,100.00
2023-02-16T04:45:36.365Z,100.00
2023-02-16T04:48:02.702Z,100.00
2023-02-16T04:50:29.015Z,100.00
2023-02-16T04:52:55.336Z,100.00
2023-02-16T04:55:21.657Z,100.00
2023-02-16T04:57:47.990Z,100.00
2023-02-16T05:00:14.305Z,100.00
2023-02-16T05:02:40.627Z,100.00
2023-02-16T05:05:06.963Z,100.00
2023-02-16T05:07:33.305Z,100.00
2023-02-16T05:09:59.607Z,100.00
2023-02-16T05:12:44.858Z,100.00
2023-02-16T05:15:11.171Z,100.00
2023-02-16T05:17:37.496Z,100.00
2023-02-16T05:20:03.879Z,100.00
2023-02-16T05:22:33.588Z,100.00
2023-02-16T05:24:59.909Z,100.00
2023-02-16T05:27:26.225Z,100.00
2023-02-16T05:29:52.658Z,100.00
2023-02-16T05:32:19.031Z,100.00
2023-02-16T05:34:45.721Z,100.00
2023-02-16T05:37:12.107Z,100.00
2023-02-16T05:39:38.437Z,100.00
2023-02-16T05:42:04.777Z,100.00
2023-02-16T05:44:31.093Z,100.00
2023-02-16T05:46:57.458Z,100.00
2023-02-16T05:49:23.817Z,100.00
2023-02-16T05:51:50.120Z,100.00
2023-02-16T05:54:19.530Z,100.00
2023-02-16T05:56:46.228Z,100.00
2023-02-16T05:59:12.650Z,100.00
2023-02-16T06:01:40.985Z,100.00
2023-02-16T06:04:07.378Z,100.00
2023-02-16T06:06:33.707Z,100.00
2023-02-16T06:09:00.055Z,100.00
2023-02-16T06:11:38.849Z,100.00
2023-02-16T06:14:05.169Z,100.00
2023-02-16T06:16:31.517Z,100.00
2023-02-16T06:18:57.867Z,100.00
2023-02-16T06:21:24.181Z,100.00
2023-02-16T06:23:50.554Z,100.00
2023-02-16T06:26:16.863Z,100.00
2023-02-16T06:28:43.194Z,100.00
2023-02-16T06:31:09.638Z,100.00
2023-02-16T06:33:36.025Z,100.00
2023-02-16T06:36:02.345Z,100.00
2023-02-16T06:38:28.674Z,100.00
2023-02-16T06:40:55.004Z,100.00
2023-02-16T06:43:21.319Z,100.00
2023-02-16T06:45:47.610Z,100.00
2023-02-16T06:48:13.986Z,100.00
2023-02-16T06:50:40.297Z,100.00
2023-02-16T06:53:06.630Z,100.00
2023-02-16T06:55:36.838Z,100.00
2023-02-16T06:58:03.240Z,100.00
2023-02-16T07:00:30.175Z,100.00
2023-02-16T07:02:56.681Z,100.00
2023-02-16T07:05:23.033Z,100.00
2023-02-16T07:07:49.353Z,100.00
2023-02-16T07:10:15.685Z,100.00
2023-02-16T07:12:42.002Z,100.00
2023-02-16T07:15:08.354Z,100.00
2023-02-16T07:17:34.656Z,100.00
2023-02-16T07:20:00.970Z,100.00
2023-02-16T07:22:27.273Z,100.00
2023-02-16T07:24:56.216Z,100.00
2023-02-16T07:27:22.524Z,100.00
2023-02-16T07:29:48.830Z,100.00
2023-02-16T07:32:15.200Z,100.00
2023-02-16T07:34:41.826Z,100.00
2023-02-16T07:37:08.142Z,100.00
2023-02-16T07:39:34.513Z,100.00
2023-02-16T07:42:00.853Z,100.00
2023-02-16T07:44:27.169Z,100.00
2023-02-16T07:46:53.467Z,100.00
2023-02-16T07:49:19.977Z,100.00
2023-02-16T07:51:46.311Z,99.50
2023-02-16T07:54:12.692Z,98.86
2023-02-16T07:56:39.020Z,98.82
2023-02-16T07:59:05.335Z,97.38
2023-02-16T08:01:31.657Z,96.63
2023-02-16T08:03:57.989Z,95.71
2023-02-16T08:06:24.292Z,94.61
2023-02-16T08:08:50.639Z,93.69
2023-02-16T08:11:16.963Z,93.91
2023-02-16T08:13:43.304Z,92.86
2023-02-16T08:16:09.697Z,92.80
2023-02-16T08:18:36.049Z,92.92
2023-02-16T08:21:04.656Z,92.62
2023-02-16T08:23:31.642Z,92.49
2023-02-16T08:25:59.258Z,90.54
2023-02-16T08:28:29.000Z,88.83
2023-02-16T08:30:55.534Z,89.28
2023-02-16T08:33:21.887Z,87.63
2023-02-16T08:35:48.534Z,86.66
2023-02-16T08:38:17.229Z,85.52
2023-02-16T08:40:43.581Z,85.74
2023-02-16T08:43:09.873Z,85.61
2023-02-16T08:45:36.203Z,84.98
2023-02-16T08:48:02.553Z,85.38
2023-02-16T08:50:29.070Z,83.09
2023-02-16T08:52:55.406Z,82.50
2023-02-16T08:55:23.116Z,82.26
2023-02-16T08:57:49.443Z,83.01
2023-02-16T09:00:34.163Z,81.45
2023-02-16T09:03:00.895Z,81.55
2023-02-16T09:05:28.368Z,80.03
2023-02-16T09:07:54.700Z,79.47
2023-02-16T09:10:24.874Z,79.13
2023-02-16T09:12:51.178Z,78.60
2023-02-16T09:15:17.539Z,78.37
2023-02-16T09:17:43.857Z,78.39
2023-02-16T09:20:10.242Z,77.88
2023-02-16T09:22:36.935Z,77.21
2023-02-16T09:25:03.263Z,76.37
2023-02-16T09:27:29.592Z,75.25
2023-02-16T09:29:55.900Z,75.33
2023-02-16T09:32:22.957Z,75.00
2023-02-16T09:34:50.341Z,74.58
2023-02-16T09:37:16.673Z,73.80
2023-02-16T09:39:43.007Z,74.60
2023-02-16T09:42:09.320Z,74.11
2023-02-16T09:44:38.091Z,73.88
2023-02-16T09:47:04.972Z,73.25
2023-02-16T09:49:32.528Z,74.37
2023-02-16T09:51:58.864Z,73.41
2023-02-16T09:54:25.178Z,74.12
2023-02-16T09:56:51.547Z,72.59
2023-02-16T09:59:18.629Z,73.09
2023-02-16T10:01:45.642Z,72.24
2023-02-16T10:04:12.149Z,71.36
2023-02-16T10:06:40.454Z,69.70
2023-02-16T10:09:06.772Z,71.34
2023-02-16T10:11:39.023Z,70.63
2023-02-16T10:14:05.356Z,70.40
2023-02-16T10:16:31.681Z,70.23
2023-02-16T10:18:57.993Z,70.81
2023-02-16T10:21:24.331Z,69.66
2023-02-16T10:23:50.899Z,69.88
2023-02-16T10:26:18.118Z,70.29
2023-02-16T10:28:44.597Z,68.95
2023-02-16T10:31:11.020Z,68.06
2023-02-16T10:33:38.358Z,67.87
2023-02-16T10:36:04.736Z,67.45
2023-02-16T10:38:32.057Z,67.18
2023-02-16T10:40:58.442Z,67.10
2023-02-16T10:43:24.763Z,66.46
2023-02-16T10:45:52.392Z,66.36
2023-02-16T10:48:20.875Z,66.81
2023-02-16T10:50:47.922Z,66.65
2023-02-16T10:53:14.272Z,66.72
2023-02-16T10:55:40.674Z,65.35
2023-02-16T10:58:07.394Z,65.07
2023-02-16T11:00:33.715Z,63.73
2023-02-16T11:03:00.036Z,65.31
2023-02-16T11:05:26.411Z,67.06
2023-02-16T11:07:52.801Z,66.04
2023-02-16T11:10:19.126Z,65.29
2023-02-16T11:12:45.463Z,64.49
2023-02-16T11:15:12.146Z,64.67
2023-02-16T11:17:38.474Z,64.73
2023-02-16T11:20:05.813Z,65.26
2023-02-16T11:22:32.162Z,63.53
2023-02-16T11:24:59.751Z,63.60
2023-02-16T11:27:26.408Z,62.64
2023-02-16T11:29:52.789Z,62.51
2023-02-16T11:32:19.199Z,62.20
2023-02-16T11:34:45.805Z,63.63
2023-02-16T11:37:12.358Z,62.18
2023-02-16T11:39:38.679Z,63.18
2023-02-16T11:42:04.997Z,63.18
2023-02-16T11:44:31.523Z,62.49
2023-02-16T11:46:57.875Z,61.47
2023-02-16T11:49:24.227Z,62.46
2023-02-16T11:51:51.204Z,61.61
2023-02-16T11:54:17.572Z,61.82
2023-02-16T11:56:46.190Z,61.96
2023-02-16T11:59:12.864Z,61.37
2023-02-16T12:01:39.211Z,61.21
2023-02-16T12:04:05.727Z,61.67
2023-02-16T12:06:32.172Z,62.13
2023-02-16T12:08:58.549Z,61.60
2023-02-16T12:11:26.337Z,61.27
2023-02-16T12:13:52.721Z,61.56
2023-02-16T12:16:19.061Z,61.35
2023-02-16T12:18:45.395Z,61.10
2023-02-16T12:21:12.196Z,60.80
2023-02-16T12:23:38.524Z,60.52
2023-02-16T12:26:05.343Z,60.77
2023-02-16T12:28:32.461Z,61.38
2023-02-16T12:30:58.820Z,61.39
2023-02-16T12:33:26.241Z,60.70
2023-02-16T12:35:52.562Z,61.08
2023-02-16T12:38:18.901Z,60.97
2023-02-16T12:40:45.280Z,60.70
2023-02-16T12:43:11.633Z,60.83
2023-02-16T12:45:38.049Z,61.47
2023-02-16T12:48:04.408Z,61.30
2023-02-16T12:50:30.777Z,61.40
2023-02-16T12:52:57.160Z,61.86
2023-02-16T12:55:23.576Z,62.26
2023-02-16T12:57:49.867Z,61.89
2023-02-16T13:00:17.859Z,61.89
2023-02-16T13:02:44.724Z,62.15
2023-02-16T13:05:11.099Z,61.88
2023-02-16T13:07:37.413Z,62.79
2023-02-16T13:10:03.778Z,63.14
2023-02-16T13:12:31.460Z,62.96
2023-02-16T13:14:57.786Z,62.86
2023-02-16T13:17:24.114Z,62.67
2023-02-16T13:19:52.040Z,63.31
2023-02-16T13:22:18.356Z,63.86
2023-02-16T13:24:45.519Z,63.69
2023-02-16T13:27:11.825Z,63.17
2023-02-16T13:29:38.437Z,63.08
2023-02-16T13:32:04.895Z,62.26
2023-02-16T13:34:31.314Z,62.53
2023-02-16T13:36:58.211Z,62.33
2023-02-16T13:39:24.557Z,63.53
2023-02-16T13:41:52.185Z,64.10
2023-02-16T13:44:18.497Z,64.36
2023-02-16T13:46:45.874Z,64.22
2023-02-16T13:49:12.216Z,64.32
2023-02-16T13:51:38.536Z,64.53
2023-02-16T13:54:04.904Z,64.48
2023-02-16T13:56:31.208Z,64.92
2023-02-16T13:58:58.238Z,64.85
2023-02-16T14:01:24.618Z,64.38
2023-02-16T14:03:50.981Z,65.48
2023-02-16T14:06:17.388Z,64.85
2023-02-16T14:08:44.525Z,64.90
2023-02-16T14:11:10.935Z,64.72
2023-02-16T14:13:37.256Z,65.16
2023-02-16T14:16:04.049Z,65.25
2023-02-16T14:18:31.286Z,65.29
2023-02-16T14:20:57.589Z,65.57
2023-02-16T14:23:23.936Z,65.36
2023-02-16T14:25:50.268Z,65.55
2023-02-16T14:28:16.598Z,65.84
2023-02-16T14:30:43.052Z,65.97
2023-02-16T14:33:09.638Z,65.51
2023-02-16T14:35:35.994Z,66.26
2023-02-16T14:38:02.305Z,66.29
2023-02-16T14:40:28.608Z,66.33
2023-02-16T14:42:55.063Z,66.49
2023-02-16T14:45:21.428Z,66.57
2023-02-16T14:47:47.757Z,67.24
2023-02-16T14:50:14.173Z,67.57
2023-02-16T14:52:40.678Z,67.71
2023-02-16T14:55:07.280Z,67.59
2023-02-16T14:57:33.900Z,67.69
2023-02-16T15:00:01.088Z,67.81
2023-02-16T15:02:27.509Z,67.83
2023-02-16T15:04:53.881Z,67.86
2023-02-16T15:07:21.641Z,67.37
2023-02-16T15:09:48.022Z,68.47
2023-02-16T15:12:23.559Z,68.50
2023-02-16T15:14:49.925Z,68.43
2023-02-16T15:17:16.278Z,69.06
2023-02-16T15:19:44.001Z,69.14
2023-02-16T15:22:10.541Z,70.08
2023-02-16T15:24:36.899Z,70.36
2023-02-16T15:27:03.743Z,70.46
2023-02-16T15:29:30.416Z,70.46
2023-02-16T15:31:57.014Z,70.72
2023-02-16T15:34:23.341Z,71.27
2023-02-16T15:36:49.684Z,71.28
2023-02-16T15:39:16.007Z,71.62
2023-02-16T15:41:42.355Z,72.22
2023-02-16T15:44:08.667Z,72.21
2023-02-16T15:46:35.041Z,73.02
2023-02-16T15:49:01.529Z,73.34
2023-02-16T15:51:27.868Z,74.93
2023-02-16T15:53:54.263Z,74.05
2023-02-16T15:56:20.832Z,74.08
2023-02-16T15:58:47.798Z,73.73
2023-02-16T16:01:17.130Z,74.77
2023-02-16T16:03:46.683Z,75.16
2023-02-16T16:06:13.321Z,74.82
2023-02-16T16:08:39.652Z,75.65
2023-02-16T16:11:06.389Z,76.03
2023-02-16T16:13:32.984Z,76.87
2023-02-16T16:16:01.959Z,77.07
2023-02-16T16:18:29.308Z,77.64
2023-02-16T16:20:55.605Z,78.39
2023-02-16T16:23:22.429Z,78.46
2023-02-16T16:25:48.769Z,79.32
2023-02-16T16:28:15.224Z,78.85
2023-02-16T16:30:44.000Z,79.53
2023-02-16T16:33:10.402Z,79.65
2023-02-16T16:35:36.822Z,79.92
2023-02-16T16:38:03.158Z,80.14
2023-02-16T16:40:29.465Z,80.69
2023-02-16T16:42:55.802Z,81.38
2023-02-16T16:45:22.144Z,82.08
2023-02-16T16:47:48.506Z,81.63
2023-02-16T16:50:14.993Z,82.06
2023-02-16T16:52:41.641Z,81.91
2023-02-16T16:55:07.946Z,82.44
2023-02-16T16:57:34.268Z,82.81
2023-02-16T17:00:00.600Z,82.81
2023-02-16T17:02:26.910Z,82.74
2023-02-16T17:04:53.321Z,83.41
2023-02-16T17:07:19.669Z,83.75
2023-02-16T17:09:46.032Z,84.14
2023-02-16T17:12:12.371Z,84.48
2023-02-16T17:14:38.718Z,84.56
2023-02-16T17:17:08.700Z,84.19
2023-02-16T17:19:38.238Z,84.20
2023-02-16T17:22:04.573Z,83.90
2023-02-16T17:24:30.892Z,84.84
2023-02-16T17:26:57.212Z,84.75
2023-02-16T17:29:23.753Z,84.64
2023-02-16T17:31:50.777Z,84.72
2023-02-16T17:34:17.277Z,85.02
2023-02-16T17:36:43.645Z,84.64
2023-02-16T17:39:09.997Z,84.17
2023-02-16T17:41:36.319Z,84.79
2023-02-16T17:44:04.171Z,84.55
2023-02-16T17:46:30.534Z,84.66
2023-02-16T17:48:56.873Z,84.64
2023-02-16T17:51:23.193Z,85.44
2023-02-16T17:53:49.511Z,85.25
2023-02-16T17:56:15.862Z,85.10
2023-02-16T17:58:42.198Z,84.71
2023-02-16T18:01:08.543Z,85.11
2023-02-16T18:03:34.901Z,84.74
2023-02-16T18:06:02.935Z,84.82
2023-02-16T18:08:29.395Z,85.10
2023-02-16T18:11:01.988Z,84.22
2023-02-16T18:13:28.504Z,85.42
2023-02-16T18:15:54.819Z,85.29
2023-02-16T18:18:21.155Z,84.56
2023-02-16T18:20:47.474Z,84.40
2023-02-16T18:23:14.676Z,85.01
2023-02-16T18:25:43.172Z,84.06
2023-02-16T18:28:09.485Z,84.78
2023-02-16T18:30:35.904Z,84.37
2023-02-16T18:33:02.343Z,84.31
2023-02-16T18:35:28.697Z,85.35
2023-02-16T18:37:55.038Z,86.00
2023-02-16T18:40:21.421Z,85.49
2023-02-16T18:42:47.923Z,85.46
2023-02-16T18:45:14.393Z,85.61
2023-02-16T18:47:40.756Z,85.85
2023-02-16T18:50:07.069Z,85.63
2023-02-16T18:52:33.435Z,85.70
2023-02-16T18:54:59.869Z,85.79
2023-02-16T18:57:26.257Z,86.65
2023-02-16T18:59:52.603Z,86.87
2023-02-16T19:02:18.949Z,87.53
2023-02-16T19:04:45.442Z,86.28
2023-02-16T19:07:11.838Z,86.18
2023-02-16T19:09:38.223Z,85.50
2023-02-16T19:12:04.591Z,86.01
2023-02-16T19:14:30.911Z,85.64
2023-02-16T19:16:57.227Z,85.83
2023-02-16T19:19:23.516Z,86.04
2023-02-16T19:21:49.847Z,85.76
2023-02-16T19:24:16.205Z,85.54
2023-02-16T19:26:42.564Z,86.06
2023-02-16T19:29:08.883Z,86.28
2023-02-16T19:31:39.355Z,86.60
2023-02-16T19:34:05.722Z,87.46
2023-02-16T19:36:33.588Z,87.31
2023-02-16T19:38:59.945Z,87.07
2023-02-16T19:43:58.311Z,86.94
2023-02-16T19:46:24.658Z,86.94
2023-02-16T19:48:51.089Z,86.92
2023-02-16T19:51:17.404Z,86.65
2023-02-16T19:53:43.926Z,86.32
2023-02-16T19:56:10.265Z,86.11
2023-02-16T19:58:36.568Z,86.00
2023-02-16T20:01:02.869Z,85.93
2023-02-16T20:03:31.187Z,86.29
2023-02-16T20:05:57.507Z,85.63
2023-02-16T20:08:23.894Z,85.31
2023-02-16T20:10:50.263Z,86.17
2023-02-16T20:13:16.589Z,86.50
2023-02-16T20:15:42.901Z,86.62
2023-02-16T20:18:09.276Z,86.59
2023-02-16T20:20:36.045Z,86.33
2023-02-16T20:23:02.350Z,86.00
2023-02-16T20:25:28.939Z,85.79
2023-02-16T20:27:55.316Z,86.19
2023-02-16T20:30:25.333Z,86.34
2023-02-16T20:32:51.743Z,86.33
2023-02-16T20:35:18.052Z,86.11
2023-02-16T20:37:44.544Z,85.82
2023-02-16T20:40:10.859Z,85.78
2023-02-16T20:42:41.160Z,85.22
2023-02-16T20:45:07.457Z,84.80
2023-02-16T20:47:33.777Z,85.20
2023-02-16T20:50:00.139Z,85.40
2023-02-16T20:52:26.467Z,85.06
2023-02-16T20:54:52.814Z,84.65
2023-02-16T20:57:26.758Z,84.48
2023-02-16T20:59:53.713Z,84.12
2023-02-16T21:02:20.107Z,84.42
2023-02-16T21:04:46.463Z,84.15
2023-02-16T21:07:12.773Z,84.14
2023-02-16T21:09:39.196Z,84.36
2023-02-16T21:12:05.497Z,83.98
2023-02-16T21:14:31.861Z,84.32
2023-02-16T21:16:58.231Z,84.90
2023-02-16T21:19:24.556Z,84.75
2023-02-16T21:21:50.879Z,84.30
2023-02-16T21:24:17.205Z,84.59
2023-02-16T21:26:43.737Z,84.54
2023-02-16T21:29:10.064Z,84.67
2023-02-16T21:31:36.572Z,84.39
2023-02-16T21:34:02.959Z,83.94
2023-02-16T21:36:29.340Z,84.22
2023-02-16T21:38:55.712Z,83.76
2023-02-16T21:41:25.272Z,83.94
2023-02-16T21:43:51.709Z,84.05
2023-02-16T21:46:18.011Z,83.91
2023-02-16T21:48:50.538Z,83.80
2023-02-16T21:51:16.926Z,83.86
2023-02-16T21:53:43.322Z,83.62
2023-02-16T21:56:19.966Z,83.55
2023-02-16T21:58:46.301Z,83.66
2023-02-16T22:01:12.746Z,84.23
2023-02-16T22:03:39.133Z,83.88
2023-02-16T22:06:05.744Z,83.95
2023-02-16T22:08:32.472Z,84.06
2023-02-16T22:10:58.826Z,84.19
2023-02-16T22:13:25.153Z,84.02
2023-02-16T22:15:51.463Z,84.13
2023-02-16T22:18:17.780Z,83.56
2023-02-16T22:20:44.106Z,83.26
2023-02-16T22:23:10.445Z,83.48
2023-02-16T22:25:36.779Z,83.94
2023-02-16T22:28:03.084Z,83.96
2023-02-16T22:30:29.494Z,83.97
2023-02-16T22:32:55.848Z,84.38
2023-02-16T22:35:22.210Z,84.95
2023-02-16T22:37:48.506Z,84.80
2023-02-16T22:40:14.900Z,85.16
2023-02-16T22:42:41.212Z,85.00
2023-02-16T22:45:07.549Z,84.36
2023-02-16T22:47:33.868Z,84.12
2023-02-16T22:50:00.197Z,84.14
2023-02-16T22:52:27.124Z,84.24
2023-02-16T22:54:53.523Z,84.92
2023-02-16T22:57:19.965Z,84.73
2023-02-16T22:59:46.316Z,84.77
2023-02-16T23:02:12.658Z,84.49
2023-02-16T23:04:39.082Z,84.30
2023-02-16T23:07:06.083Z,84.66
2023-02-16T23:09:32.415Z,84.64
2023-02-16T23:11:58.761Z,84.54
2023-02-16T23:14:25.182Z,85.40
2023-02-16T23:16:51.585Z,85.45
2023-02-16T23:19:17.971Z,85.60
2023-02-16T23:21:44.313Z,85.50
2023-02-16T23:24:10.620Z,85.13
2023-02-16T23:26:36.963Z,85.23
2023-02-16T23:29:03.358Z,84.76
2023-02-16T23:31:29.781Z,84.78
2023-02-16T23:33:56.163Z,84.68
2023-02-16T23:36:22.479Z,86.11
2023-02-16T23:38:48.807Z,85.73
2023-02-16T23:41:15.105Z,85.23
2023-02-16T23:43:41.438Z,85.24
2023-02-16T23:46:08.118Z,85.31
2023-02-16T23:48:34.701Z,85.81
2023-02-16T23:51:01.032Z,85.99
2023-02-16T23:53:27.351Z,86.59
2023-02-16T23:55:53.668Z,87.29
2023-02-16T23:58:19.990Z,87.20
